Date,TemperatureHighF,TemperatureAvgF,TemperatureLowF,DewpointHighF,DewpointAvgF,DewpointLowF,HumidityHigh,HumidityAvg,HumidityLow,PressureMaxIn,PressureMinIn,WindSpeedMaxMPH,WindSpeedAvgMPH,GustSpeedMaxMPH,PrecipitationSumIn
2013-1-1,60,54,43,57,50,41,92,89,81,30.14,29.93,14,2,0,1.31
2013-1-2,43,39,36,40,36,30,91,86,81,30.26,30.12,14,3,0,0.02
2013-1-3,46,38,33,31,28,26,82,68,52,30.41,30.24,12,3,0,0.00
2013-1-4,53,42,33,33,30,27,78,62,41,30.49,30.36,10,2,0,0.00
2013-1-5,47,43,40,39,35,31,87,75,62,30.40,30.26,10,1,0,0.14
2013-1-6,52,44,41,42,39,36,91,82,66,30.33,30.22,18,3,0,0.08
2013-1-7,55,44,34,40,36,30,88,74,55,30.36,30.19,14,2,0,0.02
2013-1-8,63,54,45,55,47,36,90,78,69,30.24,30.11,12,2,0,0.22
2013-1-9,66,61,56,63,59,53,93,92,90,30.22,30.11,17,2,0,1.02
2013-1-10,67,65,61,65,62,59,93,92,89,30.20,29.95,23,4,0,1.00
2013-1-11,69,66,63,66,63,60,92,89,85,30.11,30.00,12,1,0,0.06
2013-1-12,76,70,68,68,65,64,92,84,72,30.06,29.90,18,4,0,0.02
2013-1-13,75,60,42,68,56,39,91,85,67,30.14,29.83,18,4,0,0.45
2013-1-14,42,38,33,40,36,31,92,91,91,30.20,30.09,15,7,0,0.41
2013-1-15,40,37,34,38,35,32,93,92,92,30.12,29.99,13,3,0,0.53
2013-1-16,35,34,33,33,32,31,92,92,92,30.16,30.04,15,2,0,0.98
2013-1-17,48,38,32,37,33,30,93,83,64,30.44,30.12,22,4,0,0.12
2013-1-18,54,42,32,36,32,29,89,70,42,30.55,30.39,12,2,0,0.02
2013-1-19,61,46,34,46,38,29,84,73,57,30.39,30.24,9,0,0,0.00
2013-1-20,60,48,37,43,38,33,87,70,46,30.28,30.14,7,0,0,0.00
2013-1-21,62,49,40,46,39,33,83,69,54,30.24,30.14,11,1,0,0.00
2013-1-22,58,46,37,39,33,27,72,62,49,30.38,30.24,13,2,0,0.00
2013-1-23,66,56,44,49,44,35,80,66,51,30.38,30.25,16,2,0,0.00
2013-1-24,72,62,53,58,53,46,81,72,61,30.33,30.20,13,2,0,0.00
2013-1-25,73,65,56,58,55,51,84,71,58,30.22,30.10,18,3,0,0.00
2013-1-26,70,61,53,59,54,48,84,77,64,30.26,30.18,9,1,0,0.00
2013-1-27,72,61,52,58,53,47,88,78,60,30.28,30.18,16,2,0,0.00
2013-1-28,73,65,60,62,59,55,86,79,68,30.26,30.12,14,3,0,0.00
2013-1-29,77,71,65,66,64,61,87,78,65,30.12,29.74,25,5,0,0.00
2013-1-30,72,56,40,65,46,29,91,72,53,30.15,29.66,22,7,0,0.80
2013-1-31,58,48,37,38,34,29,77,59,38,30.31,30.14,13,2,0,0.02
2013-2-1,55,47,41,38,30,26,69,52,36,30.45,30.30,16,3,0,0.00
2013-2-2,67,53,40,49,39,27,68,59,50,30.34,30.16,18,3,0,0.00
2013-2-3,64,54,43,44,36,31,82,55,32,30.29,30.13,15,2,0,0.00
2013-2-4,60,53,46,45,38,31,71,56,46,30.13,29.97,10,1,0,0.00
2013-2-5,62,55,53,54,49,45,86,81,71,30.04,29.94,6,0,0,0.00
2013-2-6,70,62,54,58,56,51,90,80,66,30.15,29.99,10,2,0,0.43
2013-2-7,69,61,55,59,55,50,90,81,66,29.99,29.85,18,2,0,0.61
2013-2-8,62,57,48,56,51,42,86,79,72,30.21,29.96,12,2,0,0.04
2013-2-9,63,52,39,52,45,34,85,76,66,30.25,30.06,15,3,0,0.00
2013-2-10,67,61,56,63,58,51,92,89,83,30.06,29.88,18,4,0,1.41
2013-2-11,60,53,50,58,51,48,93,92,92,30.20,29.98,15,3,0,1.26
2013-2-12,55,52,49,53,50,47,94,93,93,30.11,29.75,20,4,0,0.57
2013-2-13,53,48,40,50,42,35,93,80,65,30.09,29.86,20,5,0,0.02
2013-2-14,56,45,34,42,37,31,89,74,51,30.16,30.06,9,0,0,0.00
2013-2-15,60,49,38,42,38,34,85,67,47,30.20,30.10,14,2,0,0.00
2013-2-16,47,42,35,36,24,19,70,51,36,30.30,30.17,21,5,0,0.00
2013-2-17,59,46,33,38,31,22,68,56,44,30.34,30.18,14,2,0,0.00
2013-2-18,65,55,46,54,45,36,87,71,59,30.21,29.92,25,6,0,0.92
2013-2-19,58,51,42,54,38,29,90,65,38,30.26,29.94,16,4,0,1.16
2013-2-20,55,46,39,30,28,27,64,50,36,30.27,30.06,16,4,0,0.00
2013-2-21,66,56,46,62,44,26,89,66,46,30.08,29.71,22,5,0,1.33
2013-2-22,66,57,52,58,50,47,90,79,51,30.03,29.89,11,2,0,1.26
2013-2-23,62,52,45,50,45,38,89,77,62,30.01,29.88,8,1,0,0.06
2013-2-24,67,54,39,48,41,34,83,64,43,30.04,29.77,12,2,0,0.00
2013-2-25,67,60,54,60,56,48,91,85,73,29.79,29.45,25,3,0,0.53
2013-2-26,59,52,44,50,42,36,75,68,60,29.93,29.53,21,4,0,0.47
2013-2-27,62,50,37,43,38,32,83,64,43,30.05,29.91,9,1,0,0.00
2013-2-28,53,45,38,34,31,28,72,57,40,30.15,30.04,11,1,0,0.00
2013-3-1,51,42,35,35,30,25,80,64,48,30.18,30.08,11,2,0,0.00
2013-3-2,42,36,30,28,25,21,76,65,50,30.26,30.15,11,1,0,0.00
2013-3-3,52,40,26,31,25,20,78,57,36,30.28,30.10,6,0,0,0.00
2013-3-4,68,56,41,52,43,30,73,62,53,30.10,29.88,12,2,0,0.00
2013-3-5,69,60,47,59,48,29,80,65,46,30.22,29.89,14,3,0,0.02
2013-3-6,55,45,38,30,27,24,63,49,37,30.34,30.22,12,2,0,0.02
2013-3-7,63,48,34,37,32,27,74,55,35,30.37,30.23,8,0,0,0.00
2013-3-8,71,56,40,41,37,32,73,52,33,30.33,30.17,7,0,0,0.00
2013-3-9,72,63,54,55,48,40,75,58,44,30.18,29.96,14,2,0,0.00
2013-3-10,74,66,55,62,58,52,90,76,63,29.98,29.83,22,4,0,0.75
2013-3-11,54,48,42,51,41,36,91,78,54,30.04,29.89,19,4,0,1.90
2013-3-12,61,50,38,38,35,32,80,60,37,30.25,30.03,13,2,0,0.02
2013-3-13,59,51,44,37,29,22,71,47,25,30.41,30.24,19,4,0,0.00
2013-3-14,67,52,38,39,32,26,65,48,33,30.45,30.27,10,1,0,0.00
2013-3-15,74,63,51,48,44,38,65,50,39,30.28,30.09,17,4,0,0.00
2013-3-16,75,66,57,54,51,47,71,58,47,30.09,29.92,18,4,0,0.00
2013-3-17,79,66,55,62,56,48,84,70,52,29.98,29.80,12,1,0,0.02
2013-3-18,84,63,60,100,66,55,87,65,52,29.96,29.74,18,4,0,0.22
2013-3-19,70,59,47,54,41,36,84,55,32,30.09,29.97,16,5,0,0.22
2013-3-20,64,56,50,38,33,26,58,43,27,30.19,30.04,15,3,0,0.00
2013-3-21,66,54,44,38,31,24,55,43,32,30.09,29.86,11,2,0,0.00
2013-3-22,60,56,50,52,46,38,87,71,50,29.92,29.80,16,4,0,0.10
2013-3-23,70,64,59,64,60,51,90,84,76,29.86,29.59,14,1,0,0.22
2013-3-24,65,55,41,61,45,28,90,72,44,30.03,29.62,22,5,0,0.26
2013-3-25,52,43,33,28,25,22,73,51,34,30.28,30.04,17,4,0,0.02
2013-3-26,50,41,34,27,25,23,65,53,39,30.39,30.28,15,3,0,0.00
2013-3-27,60,46,33,34,29,25,73,52,34,30.44,30.27,8,0,0,0.00
2013-3-28,69,56,40,40,35,29,72,48,29,30.37,30.22,8,0,0,0.00
2013-3-29,76,64,48,51,45,38,72,52,38,30.30,30.17,14,1,0,0.00
2013-3-30,76,67,58,55,53,48,72,60,47,30.19,29.99,20,3,0,0.00
2013-3-31,73,64,58,60,56,53,90,76,62,30.04,29.83,16,2,0,0.29
2013-4-1,71,62,53,57,53,50,91,75,50,30.12,29.96,10,1,0,0.08
2013-4-2,79,66,52,54,50,45,80,59,40,30.14,29.99,15,2,0,0.00
2013-4-3,67,52,48,52,47,45,91,83,58,30.05,29.89,20,6,0,0.73
2013-4-4,52,49,45,49,46,42,92,89,83,30.05,29.94,14,2,0,0.02
2013-4-5,62,52,44,50,45,40,90,78,59,30.20,30.05,13,2,0,0.00
2013-4-6,72,59,45,52,47,40,85,66,46,30.16,30.02,14,2,0,0.00
2013-4-7,78,67,54,58,54,49,84,66,48,30.11,29.97,16,2,0,0.00
2013-4-8,81,71,62,64,60,56,84,69,51,30.03,29.94,22,4,0,0.00
2013-4-9,85,76,71,69,66,63,81,73,57,30.02,29.91,21,5,0,0.00
2013-4-10,85,77,72,69,67,65,81,72,59,29.98,29.81,22,5,0,0.00
2013-4-11,75,62,48,68,57,45,91,84,70,29.87,29.66,19,3,0,0.53
2013-4-12,70,57,44,49,44,41,88,66,40,30.03,29.86,13,1,0,0.02
2013-4-13,78,65,51,49,47,43,77,54,35,30.08,29.90,13,2,0,0.00
2013-4-14,75,64,56,62,57,47,91,77,58,29.92,29.75,25,3,0,1.24
2013-4-15,83,72,60,70,64,56,87,77,62,29.99,29.83,16,2,0,0.02
2013-4-16,87,78,72,71,69,68,87,74,56,30.10,29.98,17,3,0,0.00
2013-4-17,87,78,71,70,68,66,84,71,55,30.10,29.95,28,4,0,0.00
2013-4-18,86,76,57,70,67,53,88,73,60,29.97,29.76,20,6,0,0.22
2013-4-19,59,52,46,54,42,36,90,69,48,30.20,29.89,20,3,0,0.67
2013-4-20,67,56,42,42,39,36,81,55,38,30.28,30.14,16,3,0,0.00
2013-4-21,71,59,47,44,41,38,72,52,36,30.25,30.12,13,2,0,0.00
2013-4-22,78,65,50,56,49,42,74,57,40,30.17,30.01,16,2,0,0.00
2013-4-23,84,73,66,64,61,56,75,66,51,30.09,29.97,16,3,0,0.00
2013-4-24,72,62,52,64,56,46,91,81,74,30.25,30.00,20,2,0,1.00
2013-4-25,69,57,48,49,45,43,85,67,42,30.35,30.23,18,4,0,0.12
2013-4-26,81,67,52,61,52,42,71,59,47,30.30,30.19,12,2,0,0.00
2013-4-27,84,75,65,67,64,58,83,69,56,30.20,30.02,14,2,0,0.00
2013-4-28,80,73,66,68,64,60,82,73,61,30.07,29.95,21,2,0,0.06
2013-4-29,85,72,59,64,59,54,85,66,43,30.01,29.89,11,0,0,0.02
2013-4-30,83,70,63,67,62,58,86,76,57,29.96,29.88,14,1,0,0.24
2013-5-1,81,70,64,69,63,60,88,80,61,29.95,29.87,21,4,0,0.20
2013-5-2,75,67,64,66,62,60,89,84,72,30.00,29.88,12,2,0,0.08
2013-5-3,66,55,44,62,51,40,90,86,79,30.05,29.91,17,2,0,0.49
2013-5-4,67,55,40,47,43,36,88,67,44,30.04,29.86,20,2,0,0.04
2013-5-5,61,54,46,46,42,39,78,65,50,30.03,29.88,16,2,0,0.00
2013-5-6,72,62,52,53,49,42,78,63,50,30.03,29.94,19,4,0,0.00
2013-5-7,80,67,54,58,55,48,85,66,47,30.07,29.98,14,2,0,0.00
2013-5-8,84,72,58,61,58,52,82,63,43,30.12,30.03,10,1,0,0.00
2013-5-9,87,75,64,65,62,57,81,65,45,30.14,30.02,14,2,0,0.00
2013-5-10,80,71,63,67,64,60,91,78,64,30.07,29.89,19,2,0,1.67
2013-5-11,82,71,64,67,62,59,84,74,60,30.09,29.95,14,1,0,0.04
2013-5-12,76,66,58,59,54,43,84,65,47,30.20,30.07,12,2,0,0.00
2013-5-13,77,66,51,52,46,41,69,50,37,30.31,30.18,14,1,0,0.00
2013-5-14,84,73,59,58,55,49,72,55,40,30.28,30.14,14,2,0,0.00
2013-5-15,87,75,62,62,58,52,71,57,43,30.21,30.03,14,2,0,0.00
2013-5-16,86,74,63,65,61,56,79,65,47,30.05,29.89,22,2,0,0.06
2013-5-17,89,79,71,71,68,63,82,70,55,30.02,29.94,11,2,0,0.02
2013-5-18,92,82,74,73,70,67,81,68,52,30.07,29.98,15,2,0,0.00
2013-5-19,91,81,72,72,70,66,84,69,52,30.03,29.94,19,2,0,0.00
2013-5-20,93,82,75,72,70,69,81,68,51,30.03,29.90,18,4,0,0.00
2013-5-21,94,83,74,72,70,69,84,67,47,29.99,29.81,16,3,0,0.00
2013-5-22,83,74,65,70,67,62,91,78,63,29.99,29.87,22,2,0,1.14
2013-5-23,91,81,69,73,69,64,84,68,51,30.08,29.97,12,1,0,0.02
2013-5-24,86,78,70,70,66,60,85,67,53,30.21,30.06,16,3,0,0.00
2013-5-25,85,74,62,59,55,51,69,53,39,30.28,30.16,15,2,0,0.00
2013-5-26,92,78,65,64,60,54,75,56,34,30.22,30.11,10,1,0,0.00
2013-5-27,88,78,67,68,64,59,76,63,47,30.15,30.02,15,2,0,0.00
2013-5-28,89,79,68,68,64,61,79,61,46,30.09,30.00,14,2,0,0.00
2013-5-29,90,78,71,75,69,61,84,73,55,30.05,29.95,13,2,0,0.39
2013-5-30,90,80,74,75,71,69,85,76,58,30.04,29.95,18,3,0,0.14
2013-5-31,92,83,74,77,72,70,86,72,56,30.03,29.93,22,3,0,0.04
2013-6-1,95,84,76,74,72,70,83,68,50,30.00,29.91,14,2,0,0.00
2013-6-2,84,76,68,73,69,64,92,79,64,30.05,29.90,20,2,0,1.28
2013-6-3,86,78,71,72,69,67,88,74,59,29.97,29.88,13,3,0,0.10
2013-6-4,95,83,71,75,70,65,84,67,47,29.98,29.87,10,2,0,0.00
2013-6-5,94,82,75,76,73,69,86,73,55,29.97,29.77,14,1,0,0.00
2013-6-6,91,78,71,75,70,65,84,76,57,29.91,29.79,19,2,0,0.00
2013-6-7,86,76,70,70,67,65,86,75,57,29.93,29.80,10,1,0,0.00
2013-6-8,92,80,68,72,68,64,85,68,51,29.99,29.91,9,1,0,0.00
2013-6-9,91,81,71,74,70,65,84,70,55,30.00,29.90,22,2,0,0.00
2013-6-10,92,83,74,73,70,66,79,67,51,30.04,29.97,11,2,0,0.00
2013-6-11,95,86,76,75,73,70,82,66,51,30.13,30.02,13,1,0,0.00
2013-6-12,96,88,80,76,73,72,76,62,47,30.12,30.02,11,2,0,0.00
2013-6-13,95,88,80,76,74,71,75,63,50,30.07,29.91,16,3,0,0.00
2013-6-14,88,83,75,74,69,63,83,64,51,29.99,29.91,14,4,0,0.00
2013-6-15,96,83,69,70,66,61,77,59,42,30.05,29.96,12,1,0,0.00
2013-6-16,96,84,75,77,73,69,81,69,53,30.08,29.99,11,1,0,0.00
2013-6-17,93,86,75,75,73,69,86,66,51,30.04,29.93,16,3,0,0.00
2013-6-18,93,83,71,74,72,66,88,69,53,30.03,29.92,20,4,0,0.00
2013-6-19,91,80,71,73,70,67,88,74,53,30.06,29.96,10,1,0,0.00
2013-6-20,91,82,73,74,71,67,88,70,53,30.14,30.03,13,1,0,0.00
2013-6-21,94,84,72,73,70,66,83,64,47,30.16,30.07,10,1,0,0.00
2013-6-22,95,84,74,73,70,68,83,64,43,30.14,30.03,14,1,0,0.00
2013-6-23,95,84,73,74,70,67,82,64,44,30.11,30.02,11,1,0,0.00
2013-6-24,94,82,74,76,72,69,85,72,53,30.15,30.05,15,1,0,0.00
2013-6-25,96,83,74,75,72,69,86,71,50,30.13,30.01,13,1,0,0.00
2013-6-26,93,85,76,74,72,70,85,66,50,30.09,29.96,14,2,0,0.00
2013-6-27,95,87,79,74,72,70,78,63,49,30.05,29.93,16,2,0,0.00
2013-6-28,94,87,81,75,73,67,74,64,53,29.97,29.78,21,3,0,0.00
2013-6-29,94,84,74,76,70,65,77,64,50,29.84,29.72,13,2,0,0.00
2013-6-30,89,81,73,69,65,61,78,60,40,29.85,29.75,15,2,0,0.00
2013-7-1,86,79,68,66,63,61,78,61,47,29.95,29.84,14,1,0,0.00
2013-7-2,88,79,69,67,63,61,79,60,43,30.04,29.94,15,2,0,0.00
2013-7-3,88,78,69,69,65,60,78,64,46,30.07,29.97,15,2,0,0.00
2013-7-4,87,79,70,71,68,65,86,70,54,30.01,29.94,18,2,0,0.00
2013-7-5,88,79,73,74,70,66,81,73,61,30.05,29.98,14,2,0,0.00
2013-7-6,90,78,71,72,69,66,87,75,53,30.06,29.97,11,1,0,0.00
2013-7-7,92,80,74,75,72,69,89,76,53,30.12,30.01,16,2,0,0.00
2013-7-8,95,82,72,75,72,69,89,73,50,30.19,30.09,10,1,0,0.00
2013-7-9,95,83,76,75,72,69,82,72,52,30.21,30.09,18,1,0,0.00
2013-7-10,94,85,78,75,73,71,81,69,53,30.13,29.98,16,3,0,0.00
2013-7-11,93,80,72,77,72,68,90,77,55,30.04,29.93,18,3,0,0.00
2013-7-12,89,80,72,74,69,64,86,70,49,29.98,29.90,43,6,0,0.00
2013-7-13,90,80,70,71,67,63,79,65,51,29.99,29.93,100,14,0,0.00
2013-7-14,92,80,71,74,69,64,83,71,53,30.05,29.94,100,9,0,0.00
2013-7-15,92,81,70,74,70,66,86,71,52,30.16,30.03,100,10,0,0.00
2013-7-16,90,80,72,75,71,68,90,77,57,30.23,30.12,43,12,0,0.00
2013-7-17,93,82,72,75,72,69,92,74,54,30.26,30.14,100,8,0,0.00
2013-7-18,92,80,72,74,70,67,84,73,55,30.20,30.05,100,6,0,0.00
2013-7-19,93,82,71,75,70,66,87,71,49,30.11,29.97,43,4,0,0.00
2013-7-20,94,81,74,75,71,67,83,72,52,30.02,29.94,43,2,0,0.00
2013-7-21,89,81,73,74,71,67,86,73,56,30.06,29.99,43,3,0,0.00
2013-7-22,92,82,78,75,72,70,79,72,56,30.06,29.99,43,4,0,0.00
2013-7-23,91,84,78,75,73,72,82,70,55,30.06,29.91,20,6,0,0.00
2013-7-24,92,84,76,75,73,72,86,71,54,29.99,29.90,16,4,0,0.00
2013-7-25,91,81,74,74,70,65,88,70,50,30.07,29.94,12,2,0,0.00
2013-7-26,93,82,70,72,68,64,82,64,48,30.09,29.98,9,1,0,0.00
2013-7-27,87,81,75,75,72,70,86,76,64,29.99,29.87,14,2,0,0.00
2013-7-28,90,81,72,73,71,68,89,73,54,30.04,29.92,9,1,0,0.00
2013-7-29,95,84,74,74,72,70,87,68,49,30.14,30.03,12,1,0,0.00
2013-7-30,97,87,78,77,74,72,82,67,48,30.17,30.07,14,0,0,0.00
2013-7-31,95,88,82,75,72,67,73,60,41,30.12,29.98,15,2,0,0.00
2013-8-1,97,87,81,76,73,70,72,64,49,30.05,29.93,14,2,0,0.00
2013-8-2,98,87,76,75,73,70,82,64,46,30.03,29.96,14,1,0,0.00
2013-8-3,99,87,80,75,73,71,74,64,46,30.09,30.01,14,1,0,0.00
2013-8-4,98,87,79,76,73,70,77,63,42,30.12,30.00,14,2,0,0.00
2013-8-5,97,88,81,77,74,72,77,64,47,30.07,29.96,16,2,0,0.00
2013-8-6,97,89,82,75,73,71,75,60,45,30.03,29.91,14,3,0,0.00
2013-8-7,99,90,82,75,73,70,74,58,40,30.01,29.90,14,2,0,0.00
2013-8-8,99,89,80,75,73,71,75,60,44,30.00,29.89,12,1,0,0.00
2013-8-9,97,87,79,100,74,72,81,66,46,30.07,29.96,14,1,0,0.00
2013-8-10,96,85,78,76,73,71,86,70,48,30.11,30.02,12,1,0,0.00
2013-8-11,95,84,75,76,72,71,87,70,47,30.15,30.07,16,1,0,0.00
2013-8-12,95,83,74,75,72,70,87,72,48,30.13,30.01,20,2,0,0.00
2013-8-13,92,80,74,76,72,69,92,79,57,30.07,29.95,18,3,0,0.00
2013-8-14,84,76,71,75,72,68,93,86,74,30.02,29.94,8,0,0,0.00
2013-8-15,86,77,68,71,68,65,89,74,55,30.04,29.95,9,2,0,0.00
2013-8-16,88,78,68,72,67,63,84,69,51,30.03,29.94,13,1,0,0.00
2013-8-17,82,75,70,71,68,66,89,79,64,30.03,29.98,12,2,0,0.00
2013-8-18,80,73,68,70,68,65,92,83,69,30.07,29.99,16,5,0,0.00
2013-8-19,86,77,71,72,70,68,89,78,60,30.09,30.00,8,1,0,0.00
2013-8-20,92,80,71,74,70,68,90,75,48,30.10,30.01,12,0,0,0.00
2013-8-21,87,79,72,76,72,69,90,79,61,30.17,30.07,10,0,0,0.00
2013-8-22,90,82,74,75,72,70,90,75,55,30.13,30.00,11,1,0,0.00
2013-8-23,91,83,74,75,72,69,89,70,52,30.05,29.96,14,2,0,0.00
2013-8-24,90,80,72,73,70,69,90,75,56,30.15,30.02,19,2,0,0.00
2013-8-25,88,80,70,73,71,67,90,74,58,30.22,30.11,18,2,0,0.00
2013-8-26,88,80,72,70,67,63,90,68,45,30.24,30.13,13,2,0,0.00
2013-8-27,86,77,67,64,63,60,83,63,46,30.18,30.06,11,1,0,0.00
2013-8-28,86,78,66,66,63,61,84,63,45,30.14,30.04,14,1,0,0.00
2013-8-29,89,80,70,68,65,63,81,62,44,30.11,30.01,7,0,0,0.00
2013-8-30,93,83,72,70,68,65,77,60,46,30.07,29.95,14,0,0,0.00
2013-8-31,93,86,78,72,70,68,73,61,48,30.01,29.89,12,1,0,0.00
2013-9-1,95,86,78,73,71,68,76,62,45,29.98,29.87,15,2,0,0.00
2013-9-2,94,84,77,74,72,68,82,68,49,30.00,29.89,14,2,0,0.00
2013-9-3,91,83,74,76,73,69,86,72,58,30.03,29.89,18,1,0,0.00
2013-9-4,92,82,72,74,71,67,90,70,46,30.10,29.98,14,1,0,0.00
2013-9-5,94,84,73,75,71,67,88,68,44,30.14,30.03,13,1,0,0.00
2013-9-6,94,84,74,74,72,69,87,69,49,30.14,30.01,8,1,0,0.00
2013-9-7,92,83,73,71,69,64,86,65,41,30.09,29.97,14,0,0,0.00
2013-9-8,92,83,71,71,68,66,84,62,43,30.04,29.95,9,1,0,0.00
2013-9-9,94,84,71,70,68,65,82,61,41,30.09,29.99,10,1,0,0.00
2013-9-10,94,83,73,72,69,67,83,64,45,30.15,30.04,14,1,0,0.00
2013-9-11,93,83,72,71,69,67,88,65,44,30.17,30.05,12,1,0,0.00
2013-9-12,92,82,71,71,66,63,86,60,39,30.09,29.93,11,1,0,0.00
2013-9-13,93,82,75,72,69,65,81,65,43,29.97,29.86,12,1,0,0.00
2013-9-14,87,76,66,68,62,58,83,62,44,30.01,29.92,10,3,0,0.00
2013-9-15,92,80,66,68,63,57,72,58,44,30.10,30.01,14,1,0,0.00
2013-9-16,91,82,73,72,68,66,83,64,44,30.12,30.02,14,2,0,0.00
2013-9-17,92,82,71,67,64,62,80,58,38,30.12,29.99,17,1,0,0.00
2013-9-18,92,81,74,71,67,62,78,65,48,30.11,30.00,13,1,0,0.00
2013-9-19,92,79,71,75,70,67,88,75,50,30.08,29.97,16,1,0,0.00
2013-9-20,91,80,75,76,72,70,89,78,56,30.03,29.83,12,1,0,0.00
2013-9-21,77,71,69,73,68,65,93,90,86,29.84,29.79,16,3,0,0.00
2013-9-22,77,68,59,65,57,53,88,70,46,29.89,29.80,16,5,0,0.00
2013-9-23,86,73,60,71,64,54,83,73,58,29.89,29.82,12,1,0,0.00
2013-9-24,84,75,71,76,71,68,92,88,76,29.88,29.80,10,1,0,0.00
2013-9-25,83,76,69,70,65,60,92,71,47,29.86,29.80,17,1,0,0.00
2013-9-26,84,74,64,65,63,60,87,70,49,29.98,29.85,12,1,0,0.00
2013-9-27,85,76,69,68,66,64,91,74,54,30.06,29.97,15,1,0,0.00
2013-9-28,84,75,67,65,63,59,81,66,47,30.11,30.01,14,1,0,0.00
2013-9-29,78,72,66,68,64,59,85,78,69,30.07,29.97,7,0,0,0.00
2013-9-30,85,74,67,73,68,63,90,82,64,29.99,29.91,7,0,0,0.00
2013-10-1,86,76,68,71,68,65,91,77,59,30.07,29.97,10,1,0,0.00
2013-10-2,85,76,70,72,69,67,90,79,61,30.09,29.98,15,1,0,0.00
2013-10-3,87,78,72,74,71,68,89,78,59,30.06,29.96,14,1,0,0.00
2013-10-4,89,78,71,72,70,68,90,76,54,30.07,29.98,17,2,0,0.00
2013-10-5,87,78,72,74,70,68,90,79,61,30.04,29.91,13,2,0,0.00
2013-10-6,75,68,58,69,62,51,92,81,67,29.99,29.88,12,1,0,0.00
2013-10-7,70,61,53,54,51,48,85,71,54,30.08,29.98,14,2,0,0.00
2013-10-8,72,61,52,54,51,48,87,71,49,30.09,30.01,10,1,0,0.00
2013-10-9,79,66,53,64,57,50,88,75,53,30.12,30.03,11,0,0,0.00
2013-10-10,70,56,66,100,69,62,91,75,84,30.14,30.09,6,0,0,0.00
2013-10-11,79,75,71,68,67,67,85,78,68,30.02,29.98,0,0,0,0.00
2013-10-12,88,76,66,72,68,63,90,77,52,30.11,30.01,14,1,0,0.00
2013-10-13,87,76,68,71,68,66,90,76,54,30.20,30.08,12,1,0,0.00
2013-10-14,84,74,65,67,63,61,88,71,49,30.16,30.04,10,1,0,0.00
2013-10-15,86,75,65,68,64,60,85,71,52,30.08,29.95,12,1,0,0.00
2013-10-16,84,76,70,70,68,65,90,78,63,30.01,29.91,17,1,0,0.00
2013-10-17,70,64,56,67,60,54,93,88,81,30.05,29.93,10,0,0,0.00
2013-10-18,73,62,52,58,54,50,92,77,56,30.09,29.95,15,1,0,0.00
2013-10-19,73,63,52,60,56,49,90,80,61,30.08,29.93,10,1,0,0.00
2013-10-20,68,56,46,50,47,43,90,72,45,30.11,30.01,10,1,0,0.00
2013-10-21,75,61,49,60,54,46,88,77,54,30.09,29.97,8,0,0,0.00
2013-10-22,74,64,56,61,57,51,91,79,59,30.03,29.97,10,0,0,0.00
2013-10-23,70,60,52,52,47,42,84,64,38,30.16,30.03,18,2,0,0.00
2013-10-24,75,61,49,55,49,42,83,67,49,30.27,30.12,14,2,0,0.00
2013-10-25,62,54,46,49,40,36,78,61,41,30.44,30.27,18,5,0,0.00
2013-10-26,70,56,44,50,43,36,78,63,42,30.33,30.14,14,0,0,0.00
2013-10-27,71,62,52,57,53,45,85,73,58,30.17,30.06,11,1,0,0.00
2013-10-28,79,68,60,66,61,57,90,79,63,30.21,30.08,14,1,0,0.00
2013-10-29,80,69,60,65,61,58,90,77,55,30.25,30.16,14,1,0,0.00
2013-10-30,78,70,63,67,64,60,90,82,68,30.22,30.03,14,1,0,0.00
2013-10-31,74,70,66,69,67,62,93,88,82,30.03,29.80,23,5,0,0.00
2013-11-1,71,64,54,62,55,48,91,74,46,29.96,29.85,11,1,0,0.00
2013-11-2,67,58,49,52,46,41,86,67,43,30.20,29.95,17,2,0,0.00
2013-11-3,63,52,44,46,42,38,82,70,47,30.27,30.13,16,2,0,0.00
2013-11-4,68,57,46,54,48,41,85,74,57,30.28,30.18,18,1,0,0.00
2013-11-5,74,64,58,59,55,51,85,73,57,30.24,30.13,17,3,0,0.00
2013-11-6,81,68,57,68,61,52,91,80,63,30.15,30.05,15,2,0,0.12
2013-11-7,64,52,44,62,43,37,91,73,48,30.36,30.13,20,4,0,0.12
2013-11-8,61,50,41,43,38,34,82,64,43,30.37,30.21,15,3,0,0.00
2013-11-9,68,57,47,48,44,38,79,63,44,30.27,30.18,8,1,0,0.00
2013-11-10,71,59,52,52,48,45,84,69,43,30.32,30.22,14,2,0,0.00
2013-11-11,71,59,48,51,48,44,86,70,47,30.27,30.16,7,0,0,0.00
2013-11-12,62,50,34,52,42,27,84,75,65,30.54,30.21,17,3,0,0.00
2013-11-13,52,40,30,27,24,22,78,56,32,30.58,30.41,18,5,0,0.00
2013-11-14,60,46,31,43,34,23,74,64,52,30.42,30.16,11,1,0,0.00
2013-11-15,68,58,50,61,52,41,91,81,67,30.16,30.00,11,1,0,0.00
2013-11-16,77,68,60,67,62,56,92,84,69,30.07,29.95,16,2,0,0.00
2013-11-17,78,73,68,70,68,65,89,84,76,29.98,29.86,20,3,0,0.00
2013-11-18,74,66,53,70,46,34,90,51,25,30.16,29.97,21,6,0,0.00
2013-11-19,61,52,43,39,32,27,63,49,30,30.21,30.10,20,6,0,0.00
2013-11-20,66,52,39,46,39,31,80,62,43,30.14,30.05,11,1,0,0.00
2013-11-21,68,60,51,62,56,46,89,84,77,30.22,30.12,11,1,0,0.00
2013-11-22,68,64,59,66,62,57,94,90,81,30.29,30.17,28,2,0,0.04
2013-11-23,59,50,41,56,47,34,93,89,76,30.40,30.21,23,5,0,0.04
2013-11-24,47,40,34,33,26,23,75,58,41,30.47,30.32,18,8,0,0.00
2013-11-25,43,40,36,41,34,24,93,80,58,30.33,29.98,15,4,0,0.00
2013-11-26,46,42,37,44,40,35,93,93,91,30.09,29.79,15,4,0,0.37
2013-11-27,42,35,28,35,27,22,92,72,49,30.42,30.09,18,3,0,0.00
2013-11-28,48,36,26,33,26,20,82,68,45,30.49,30.39,8,0,0,0.00
2013-11-29,55,40,29,32,28,25,85,65,36,30.55,30.43,10,1,0,0.00
2013-11-30,60,45,32,37,32,27,83,64,36,30.46,30.26,6,0,0,0.00
2013-12-1,68,53,38,50,43,32,81,70,51,30.28,30.00,11,1,0,0.00
2013-12-2,71,62,54,60,54,47,89,75,66,30.00,29.74,19,2,0,0.00
2013-12-3,75,68,61,64,60,57,87,78,65,29.80,29.69,20,3,0,0.00
2013-12-4,79,72,68,67,65,63,86,78,65,29.93,29.79,19,3,0,0.00
2013-12-5,80,73,56,69,65,51,83,77,67,30.01,29.90,19,2,0,0.00
2013-12-6,56,44,35,50,41,33,93,89,83,30.28,29.96,18,2,0,0.00
2013-12-7,36,34,31,33,30,28,91,87,83,30.38,30.26,22,4,0,0.00
2013-12-8,44,35,36,100,43,33,93,82,90,30.27,30.05,14,0,0,0.00
2013-12-9,48,43,37,45,41,35,94,92,87,30.18,30.06,14,2,0,0.00
2013-12-10,45,37,33,34,32,28,93,81,60,30.40,30.15,27,3,0,0.00
2013-12-11,56,42,30,43,33,26,86,71,53,30.46,30.33,15,1,0,0.00
2013-12-12,51,40,32,32,26,22,83,61,32,30.55,30.37,19,3,0,0.00
2013-12-13,57,46,34,47,34,22,79,63,50,30.38,29.92,12,3,0,0.00
2013-12-14,69,56,43,57,49,37,85,79,64,30.13,29.83,17,3,0,0.00
2013-12-15,47,41,33,37,32,29,84,72,62,30.31,30.12,12,2,0,0.00
2013-12-16,57,42,31,39,33,27,86,72,46,30.35,30.23,10,1,0,0.00
2013-12-17,62,47,34,43,37,29,84,71,45,30.33,30.24,12,1,0,0.00
2013-12-18,62,50,38,42,39,34,85,67,46,30.38,30.21,28,1,0,0.00
2013-12-19,69,58,44,56,49,36,80,73,61,30.21,30.03,13,2,0,0.00
2013-12-20,74,67,61,65,61,55,85,81,70,30.05,29.94,28,3,0,0.00
2013-12-21,77,71,59,68,64,57,92,81,73,29.94,29.70,24,6,0,0.00
2013-12-22,67,59,49,60,55,44,92,85,68,30.20,29.83,14,1,0,0.00
2013-12-23,49,39,30,44,32,26,86,76,62,30.49,30.19,17,3,0,0.00
2013-12-24,47,36,28,29,25,23,87,68,42,30.55,30.39,17,2,0,0.00
2013-12-25,50,38,27,30,26,21,78,63,42,30.42,30.30,10,1,0,0.00
2013-12-26,55,43,33,36,31,26,75,62,44,30.41,30.30,16,1,0,0.00
2013-12-27,54,45,37,36,32,30,80,62,44,30.45,30.30,11,1,0,0.00
2013-12-28,47,45,42,44,40,32,93,84,57,30.31,29.97,9,1,0,0.00
2013-12-29,58,49,44,45,42,40,93,78,51,30.15,29.98,8,0,0,0.00
2013-12-30,53,46,40,45,41,34,86,81,73,30.37,30.11,8,0,0,0.00
2013-12-31,48,41,35,36,34,30,83,75,61,30.45,30.30,12,2,0,0.00
2014-1-1,59,50,42,50,44,36,87,79,66,30.30,30.03,9,1,0,0.00
2014-1-2,56,47,31,52,38,23,88,72,51,30.37,29.97,18,3,0,0.00